Terminal Aerodrome Forecast
Issued by NWS

Home | Current Version | Previous Version | Text Only | Print | Product List | Glossary On
Versions: 1 2 3 4 5 6 7 8 9 10 11 12 13 14 15 16 17 18
000
FTUS41 KCAR 011121
TAFFVE
TAF
KFVE 011121Z 0112/0212 34006KT P6SM SCT250
     FM011600 VRB03KT P6SM SCT180
     FM020900 22007KT P6SM BKN070=

USA.gov is the U.S. government's official web portal to all federal, state and local government web resources and services.